createdAt,value
2017-12-05T00:00:09.857Z,80.11
2017-12-05T00:01:14.922Z,80.17
2017-12-05T00:02:21.386Z,80.40
2017-12-05T00:03:27.154Z,80.53
2017-12-05T00:04:33.039Z,80.68
2017-12-05T00:05:38.868Z,80.68
2017-12-05T00:06:44.572Z,80.78
2017-12-05T00:07:50.304Z,80.96
2017-12-05T00:08:56.021Z,81.18
2017-12-05T00:10:02.504Z,81.32
2017-12-05T00:11:08.213Z,81.33
2017-12-05T00:12:13.908Z,81.30
2017-12-05T00:13:19.827Z,81.33
2017-12-05T00:14:25.669Z,81.39
2017-12-05T00:15:30.663Z,81.35
2017-12-05T00:16:36.843Z,81.22
2017-12-05T00:17:42.562Z,81.13
2017-12-05T00:18:49.044Z,81.18
2017-12-05T00:19:55.506Z,81.19
2017-12-05T00:21:01.224Z,81.23
2017-12-05T00:22:08.112Z,81.26
2017-12-05T00:23:13.833Z,81.16
2017-12-05T00:24:20.311Z,81.09
2017-12-05T00:25:26.000Z,81.06
2017-12-05T00:26:31.723Z,81.05
2017-12-05T00:27:37.417Z,81.00
2017-12-05T00:28:43.881Z,81.07
2017-12-05T00:29:49.585Z,81.01
2017-12-05T00:30:55.364Z,80.87
2017-12-05T00:32:01.858Z,80.84
2017-12-05T00:33:07.258Z,81.01
2017-12-05T00:34:13.385Z,81.04
2017-12-05T00:35:19.081Z,81.16
2017-12-05T00:36:24.773Z,81.17
2017-12-05T00:37:31.272Z,81.06
2017-12-05T00:38:37.101Z,80.96
2017-12-05T00:39:42.787Z,80.92
2017-12-05T00:40:48.527Z,80.81
2017-12-05T00:41:53.884Z,80.71
2017-12-05T00:43:00.380Z,80.78
2017-12-05T00:44:06.080Z,80.94
2017-12-05T00:45:11.911Z,80.93
2017-12-05T00:46:16.953Z,81.04
2017-12-05T00:47:23.090Z,81.08
2017-12-05T00:48:28.818Z,81.08
2017-12-05T00:49:34.545Z,81.13
2017-12-05T00:50:40.246Z,81.05
2017-12-05T00:51:45.947Z,81.04
2017-12-05T00:52:51.675Z,81.04
2017-12-05T00:53:57.583Z,81.02
2017-12-05T00:55:03.273Z,81.04
2017-12-05T00:56:08.977Z,80.94
2017-12-05T00:57:14.677Z,81.06
2017-12-05T00:58:21.154Z,81.14
2017-12-05T00:59:26.861Z,81.31
2017-12-05T01:00:33.342Z,81.50
2017-12-05T01:01:39.904Z,81.50
2017-12-05T01:02:45.605Z,81.50
2017-12-05T01:03:51.310Z,81.56
2017-12-05T01:04:57.048Z,81.53
2017-12-05T01:06:02.744Z,81.66
2017-12-05T01:07:09.217Z,81.61
2017-12-05T01:08:15.695Z,81.52
2017-12-05T01:09:21.385Z,81.43
2017-12-05T01:10:27.136Z,81.48
2017-12-05T01:11:33.275Z,81.39
2017-12-05T01:12:39.750Z,81.44
2017-12-05T01:13:46.232Z,81.50
2017-12-05T01:14:52.686Z,81.54
2017-12-05T01:15:58.407Z,81.42
2017-12-05T01:17:04.863Z,81.49
2017-12-05T01:18:11.357Z,81.37
2017-12-05T01:19:17.048Z,81.37
2017-12-05T01:20:22.755Z,81.37
2017-12-05T01:21:28.472Z,81.52
2017-12-05T01:22:34.178Z,81.43
2017-12-05T01:23:39.946Z,81.56
2017-12-05T01:24:45.653Z,81.67
2017-12-05T01:25:51.349Z,81.63
2017-12-05T01:26:57.113Z,81.49
2017-12-05T01:28:02.606Z,81.47
2017-12-05T01:29:09.092Z,81.51
2017-12-05T01:30:14.786Z,81.53
2017-12-05T01:31:21.248Z,81.52
2017-12-05T01:32:27.746Z,81.48
2017-12-05T01:33:33.449Z,81.44
2017-12-05T01:34:39.184Z,81.38
2017-12-05T01:35:44.872Z,81.29
2017-12-05T01:36:50.572Z,81.33
2017-12-05T01:37:57.060Z,81.27
2017-12-05T01:39:02.765Z,81.29
2017-12-05T01:40:09.224Z,81.19
2017-12-05T01:41:15.044Z,81.08
2017-12-05T01:42:20.731Z,80.96
2017-12-05T01:43:26.159Z,81.01
2017-12-05T01:44:32.621Z,81.00
2017-12-05T01:45:38.554Z,80.90
2017-12-05T01:46:44.261Z,80.82
2017-12-05T01:47:49.761Z,80.75
2017-12-05T01:48:55.489Z,80.53
2017-12-05T01:50:00.869Z,80.57
2017-12-05T01:51:06.589Z,80.54
2017-12-05T01:52:12.485Z,80.51
2017-12-05T01:53:17.997Z,80.58
2017-12-05T01:54:23.533Z,80.69
2017-12-05T01:55:29.235Z,80.73
2017-12-05T01:56:34.925Z,81.01
2017-12-05T01:57:41.401Z,81.14
2017-12-05T01:58:47.012Z,81.16
2017-12-05T01:59:52.410Z,81.22
2017-12-05T02:00:57.030Z,81.26
2017-12-05T02:02:02.728Z,81.26
2017-12-05T02:03:08.438Z,81.26
2017-12-05T02:04:13.289Z,81.41
2017-12-05T02:05:18.349Z,81.38
2017-12-05T02:06:23.720Z,81.45
2017-12-05T02:07:29.098Z,81.44
2017-12-05T02:08:34.801Z,81.53
2017-12-05T02:09:40.542Z,81.65
2017-12-05T02:10:46.855Z,81.71
2017-12-05T02:11:52.635Z,81.78
2017-12-05T02:12:58.430Z,81.86
2017-12-05T02:14:03.295Z,81.86
2017-12-05T02:15:09.018Z,81.97
2017-12-05T02:16:14.065Z,82.04
2017-12-05T02:17:20.552Z,82.05
2017-12-05T02:18:26.833Z,81.95
2017-12-05T02:19:32.213Z,81.98
2017-12-05T02:20:38.383Z,82.05
2017-12-05T02:21:44.681Z,82.13
2017-12-05T02:22:49.715Z,82.21
2017-12-05T02:23:55.408Z,82.20
2017-12-05T02:25:01.118Z,82.12
2017-12-05T02:26:06.812Z,82.13
2017-12-05T02:27:12.546Z,82.19
2017-12-05T02:28:18.252Z,82.03
2017-12-05T02:29:24.718Z,82.08
2017-12-05T02:30:30.412Z,82.04
2017-12-05T02:31:36.114Z,81.96
2017-12-05T02:32:41.845Z,81.82
2017-12-05T02:33:47.316Z,81.78
2017-12-05T02:34:53.028Z,81.70
2017-12-05T02:35:58.752Z,81.73
2017-12-05T02:37:05.226Z,81.77
2017-12-05T02:38:10.958Z,81.82
2017-12-05T02:39:16.473Z,81.81
2017-12-05T02:40:21.277Z,81.88
2017-12-05T02:41:26.650Z,81.87
2017-12-05T02:42:32.378Z,81.83
2017-12-05T02:43:38.048Z,81.77
2017-12-05T02:44:43.753Z,81.82
2017-12-05T02:45:49.890Z,81.79
2017-12-05T02:46:54.925Z,81.82
2017-12-05T02:48:01.389Z,81.81
2017-12-05T02:49:07.560Z,81.88
2017-12-05T02:50:12.917Z,81.93
2017-12-05T02:51:17.967Z,81.91
2017-12-05T02:52:23.661Z,81.94
2017-12-05T02:53:28.698Z,81.90
2017-12-05T02:54:34.116Z,81.95
2017-12-05T02:55:39.150Z,82.00
2017-12-05T02:56:44.518Z,81.94
2017-12-05T02:57:50.216Z,82.05
2017-12-05T02:58:55.251Z,82.20
2017-12-05T03:00:00.641Z,82.25
2017-12-05T03:01:06.440Z,82.32
2017-12-05T03:02:12.137Z,82.46
2017-12-05T03:03:17.167Z,82.48
2017-12-05T03:04:22.233Z,82.47
2017-12-05T03:05:27.619Z,82.60
2017-12-05T03:06:34.092Z,82.78
2017-12-05T03:07:39.802Z,82.92
2017-12-05T03:08:46.267Z,83.01
2017-12-05T03:09:52.740Z,83.02
2017-12-05T03:10:58.143Z,82.99
2017-12-05T03:12:03.508Z,82.89
2017-12-05T03:13:09.544Z,82.88
2017-12-05T03:14:14.911Z,82.92
2017-12-05T03:15:20.290Z,82.90
2017-12-05T03:16:26.024Z,83.01
2017-12-05T03:17:31.725Z,83.05
2017-12-05T03:18:36.761Z,82.94
2017-12-05T03:19:42.467Z,82.94
2017-12-05T03:20:48.157Z,82.92
2017-12-05T03:21:53.889Z,82.90
2017-12-05T03:22:59.248Z,82.83
2017-12-05T03:24:05.381Z,82.75
2017-12-05T03:25:11.090Z,82.73
2017-12-05T03:26:16.789Z,82.60
2017-12-05T03:27:23.285Z,82.40
2017-12-05T03:28:28.982Z,82.43
2017-12-05T03:29:35.444Z,82.39
2017-12-05T03:30:41.914Z,82.38
2017-12-05T03:31:48.382Z,82.35
2017-12-05T03:32:54.109Z,82.25
2017-12-05T03:33:59.712Z,82.12
2017-12-05T03:35:21.813Z,82.11
2017-12-05T03:36:27.501Z,82.16
2017-12-05T03:37:33.969Z,82.13
2017-12-05T03:38:40.463Z,82.08
2017-12-05T03:39:46.168Z,82.07
2017-12-05T03:40:52.642Z,81.94
2017-12-05T03:41:58.345Z,81.83
2017-12-05T03:43:04.041Z,81.81
2017-12-05T03:44:10.030Z,81.68
2017-12-05T03:45:16.498Z,81.49
2017-12-05T03:46:22.053Z,81.41
2017-12-05T03:47:28.520Z,81.33
2017-12-05T03:48:34.212Z,81.28
2017-12-05T03:49:39.936Z,81.06
2017-12-05T03:50:45.453Z,80.93
2017-12-05T03:51:51.150Z,80.80
2017-12-05T03:52:57.421Z,80.68
2017-12-05T03:54:03.881Z,80.72
2017-12-05T03:55:09.609Z,80.60
2017-12-05T03:56:16.081Z,80.52
2017-12-05T03:57:22.550Z,80.34
2017-12-05T03:58:28.243Z,80.25
2017-12-05T03:59:33.954Z,80.12
2017-12-05T04:00:39.672Z,80.05
2017-12-05T04:01:45.376Z,80.10
2017-12-05T04:02:51.076Z,80.09
2017-12-05T04:03:56.782Z,80.08
2017-12-05T04:05:03.246Z,80.05
2017-12-05T04:06:08.779Z,79.92
2017-12-05T04:07:15.237Z,79.77
2017-12-05T04:08:20.936Z,79.71
2017-12-05T04:09:26.640Z,79.75
2017-12-05T04:10:32.332Z,79.82
2017-12-05T04:11:38.828Z,79.71
2017-12-05T04:12:44.539Z,79.62
2017-12-05T04:13:51.004Z,79.58
2017-12-05T04:14:57.472Z,79.49
2017-12-05T04:16:03.194Z,79.48
2017-12-05T04:17:08.922Z,79.50
2017-12-05T04:18:14.626Z,79.74
2017-12-05T04:19:20.401Z,79.69
2017-12-05T04:20:26.097Z,79.63
2017-12-05T04:21:31.809Z,79.62
2017-12-05T04:22:38.300Z,79.79
2017-12-05T04:23:44.042Z,80.01
2017-12-05T04:24:49.547Z,80.08
2017-12-05T04:25:56.008Z,79.99
2017-12-05T04:27:01.700Z,80.14
2017-12-05T04:28:07.424Z,80.26
2017-12-05T04:29:13.136Z,80.26
2017-12-05T04:30:18.835Z,80.13
2017-12-05T04:31:24.537Z,80.27
2017-12-05T04:32:29.906Z,80.33
2017-12-05T04:33:35.625Z,80.18
2017-12-05T04:34:41.381Z,79.93
2017-12-05T04:35:47.517Z,79.86
2017-12-05T04:36:53.212Z,79.93
2017-12-05T04:37:58.916Z,80.02
2017-12-05T04:39:04.084Z,79.88
2017-12-05T04:40:09.445Z,79.64
2017-12-05T04:41:15.149Z,79.58
2017-12-05T04:42:20.840Z,79.72
2017-12-05T04:43:26.332Z,79.83
2017-12-05T04:44:32.073Z,79.79
2017-12-05T04:45:37.802Z,79.82
2017-12-05T04:46:44.278Z,79.70
2017-12-05T04:47:49.969Z,79.75
2017-12-05T04:48:55.357Z,79.80
2017-12-05T04:50:00.748Z,79.82
2017-12-05T04:51:07.209Z,79.67
2017-12-05T04:52:13.587Z,79.57
2017-12-05T04:53:20.045Z,79.44
2017-12-05T04:54:25.428Z,79.24
2017-12-05T04:55:30.957Z,79.25
2017-12-05T04:56:36.316Z,79.45
2017-12-05T04:57:41.832Z,79.56
2017-12-05T04:58:47.533Z,79.55
2017-12-05T04:59:53.045Z,79.54
2017-12-05T05:00:58.869Z,79.38
2017-12-05T05:02:03.717Z,79.26
2017-12-05T05:03:09.846Z,79.08
2017-12-05T05:04:15.390Z,79.13
2017-12-05T05:05:21.898Z,79.22
2017-12-05T05:06:27.628Z,79.27
2017-12-05T05:07:33.316Z,79.23
2017-12-05T05:08:39.033Z,79.20
2017-12-05T05:09:45.134Z,79.06
2017-12-05T05:10:51.603Z,78.96
2017-12-05T05:11:57.159Z,78.91
2017-12-05T05:13:03.065Z,78.92
2017-12-05T05:14:09.530Z,78.91
2017-12-05T05:15:16.048Z,78.92
2017-12-05T05:16:21.543Z,78.84
2017-12-05T05:17:27.137Z,78.61
2017-12-05T05:18:32.825Z,78.43
2017-12-05T05:19:38.334Z,78.46
2017-12-05T05:20:44.805Z,78.41
2017-12-05T05:21:50.323Z,78.34
2017-12-05T05:22:57.205Z,78.33
2017-12-05T05:24:03.477Z,78.21
2017-12-05T05:25:09.172Z,78.05
2017-12-05T05:26:14.684Z,78.02
2017-12-05T05:27:20.271Z,78.11
2017-12-05T05:28:26.868Z,78.02
2017-12-05T05:29:32.603Z,78.01
2017-12-05T05:30:38.113Z,78.02
2017-12-05T05:31:43.840Z,77.87
2017-12-05T05:32:50.853Z,77.71
2017-12-05T05:33:56.596Z,77.67
2017-12-05T05:35:02.107Z,77.59
2017-12-05T05:36:07.801Z,77.60
2017-12-05T05:37:13.547Z,77.51
2017-12-05T05:38:20.000Z,77.58
2017-12-05T05:39:25.734Z,77.48
2017-12-05T05:40:31.240Z,77.45
2017-12-05T05:41:36.952Z,77.62
2017-12-05T05:42:43.415Z,77.83
2017-12-05T05:43:49.118Z,78.02
2017-12-05T05:44:54.848Z,78.12
2017-12-05T05:46:00.556Z,78.15
2017-12-05T05:47:06.248Z,78.13
2017-12-05T05:48:11.770Z,78.05
2017-12-05T05:49:17.280Z,78.01
2017-12-05T05:50:23.010Z,77.93
2017-12-05T05:51:28.533Z,77.87
2017-12-05T05:52:34.232Z,78.02
2017-12-05T05:53:39.921Z,78.18
2017-12-05T05:54:45.616Z,78.27
2017-12-05T05:55:51.337Z,78.18
2017-12-05T05:56:57.045Z,78.12
2017-12-05T05:58:02.742Z,77.99
2017-12-05T05:59:09.209Z,78.00
2017-12-05T06:00:15.702Z,78.13
2017-12-05T06:01:21.649Z,78.43
2017-12-05T06:02:27.349Z,78.63
2017-12-05T06:03:33.863Z,78.75
2017-12-05T06:04:39.566Z,78.57
2017-12-05T06:05:45.274Z,78.53
2017-12-05T06:06:50.997Z,78.83
2017-12-05T06:07:56.707Z,79.00
2017-12-05T06:09:02.477Z,79.00
2017-12-05T06:10:08.184Z,79.01
2017-12-05T06:11:13.930Z,79.15
2017-12-05T06:12:19.902Z,79.23
2017-12-05T06:13:25.625Z,79.42
2017-12-05T06:14:31.349Z,79.57
2017-12-05T06:15:38.077Z,79.51
2017-12-05T06:16:43.790Z,79.51
2017-12-05T06:17:49.508Z,79.56
2017-12-05T06:18:55.216Z,79.59
2017-12-05T06:20:01.702Z,79.50
2017-12-05T06:21:07.429Z,79.56
2017-12-05T06:22:13.117Z,79.56
2017-12-05T06:23:18.901Z,79.43
2017-12-05T06:24:25.362Z,79.32
2017-12-05T06:25:30.852Z,79.48
2017-12-05T06:26:37.053Z,79.50
2017-12-05T06:27:42.755Z,79.63
2017-12-05T06:28:48.485Z,79.64
2017-12-05T06:29:54.184Z,79.71
2017-12-05T06:30:59.887Z,79.72
2017-12-05T06:32:06.357Z,79.79
2017-12-05T06:33:12.823Z,79.93
2017-12-05T06:34:19.316Z,79.89
2017-12-05T06:35:25.023Z,80.03
2017-12-05T06:36:30.721Z,80.04
2017-12-05T06:37:36.564Z,80.09
2017-12-05T06:38:42.269Z,80.00
2017-12-05T06:39:48.793Z,80.14
2017-12-05T06:40:55.368Z,80.17
2017-12-05T06:42:01.631Z,80.27
2017-12-05T06:43:07.347Z,80.16
2017-12-05T06:44:13.065Z,80.16
2017-12-05T06:45:18.953Z,80.21
2017-12-05T06:46:25.404Z,80.25
2017-12-05T06:47:31.109Z,80.18
2017-12-05T06:48:36.796Z,80.14
2017-12-05T06:49:42.495Z,80.05
2017-12-05T06:50:47.637Z,79.99
2017-12-05T06:51:53.149Z,79.91
2017-12-05T06:52:58.356Z,79.97
2017-12-05T06:54:03.809Z,79.97
2017-12-05T06:55:10.213Z,80.17
2017-12-05T06:56:16.353Z,80.31
2017-12-05T06:57:22.181Z,80.08
2017-12-05T06:58:27.981Z,79.95
2017-12-05T06:59:33.027Z,79.98
2017-12-05T07:00:38.100Z,80.07
2017-12-05T07:01:43.824Z,80.10
2017-12-05T07:02:49.969Z,79.93
2017-12-05T07:03:56.107Z,79.97
2017-12-05T07:05:01.947Z,80.19
2017-12-05T07:06:07.326Z,80.21
2017-12-05T07:07:12.392Z,79.97
2017-12-05T07:08:17.428Z,79.89
2017-12-05T07:09:22.620Z,79.79
2017-12-05T07:10:28.317Z,79.76
2017-12-05T07:11:34.112Z,79.69
2017-12-05T07:12:39.828Z,79.60
2017-12-05T07:13:44.883Z,79.47
2017-12-05T07:14:49.921Z,79.43
2017-12-05T07:15:54.956Z,79.49
2017-12-05T07:16:59.995Z,79.61
2017-12-05T07:18:05.933Z,79.65
2017-12-05T07:19:12.105Z,79.70
2017-12-05T07:20:18.695Z,79.55
2017-12-05T07:21:23.725Z,79.30
2017-12-05T07:22:28.767Z,79.33
2017-12-05T07:23:34.191Z,79.25
2017-12-05T07:24:39.257Z,79.14
2017-12-05T07:25:45.390Z,78.98
2017-12-05T07:26:50.748Z,79.00
2017-12-05T07:27:56.549Z,79.09
2017-12-05T07:29:01.635Z,79.27
2017-12-05T07:30:07.761Z,79.42
2017-12-05T07:31:14.650Z,79.51
2017-12-05T07:32:20.076Z,79.53
2017-12-05T07:33:26.645Z,79.57
2017-12-05T07:34:32.625Z,79.63
2017-12-05T07:35:39.532Z,79.61
2017-12-05T07:36:44.569Z,79.46
2017-12-05T07:37:50.373Z,79.47
2017-12-05T07:38:56.522Z,79.52
2017-12-05T07:40:01.597Z,79.47
2017-12-05T07:41:07.749Z,79.42
2017-12-05T07:42:12.782Z,79.39
2017-12-05T07:43:17.900Z,79.33
2017-12-05T07:44:23.436Z,79.25
2017-12-05T07:45:29.432Z,79.18
2017-12-05T07:46:35.949Z,79.07
2017-12-05T07:47:41.381Z,79.13
2017-12-05T07:48:46.543Z,79.15
2017-12-05T07:49:51.732Z,79.20
2017-12-05T07:50:57.724Z,79.10
2017-12-05T07:52:03.003Z,79.08
2017-12-05T07:53:08.832Z,79.19
2017-12-05T07:54:15.410Z,79.21
2017-12-05T07:55:21.972Z,79.10
2017-12-05T07:56:27.464Z,79.19
2017-12-05T07:57:33.928Z,79.21
2017-12-05T07:58:39.739Z,79.19
2017-12-05T07:59:45.291Z,79.21
2017-12-05T08:00:50.372Z,79.01
2017-12-05T08:01:55.954Z,78.83
2017-12-05T08:03:01.709Z,78.69
2017-12-05T08:04:07.375Z,78.57
2017-12-05T08:05:13.689Z,78.56
2017-12-05T08:06:19.491Z,78.67
2017-12-05T08:07:25.164Z,78.76
2017-12-05T08:08:30.626Z,78.79
2017-12-05T08:09:35.829Z,78.74
2017-12-05T08:10:41.323Z,78.64
2017-12-05T08:11:46.889Z,78.58
2017-12-05T08:12:52.363Z,78.57
2017-12-05T08:13:58.160Z,78.57
2017-12-05T08:15:03.435Z,78.76
2017-12-05T08:16:10.535Z,78.93
2017-12-05T08:17:16.275Z,78.93
2017-12-05T08:18:22.535Z,79.13
2017-12-05T08:19:27.964Z,79.12
2017-12-05T08:20:33.369Z,79.02
2017-12-05T08:21:39.726Z,78.97
2017-12-05T08:22:45.707Z,78.98
2017-12-05T08:23:52.086Z,78.82
2017-12-05T08:24:57.814Z,78.76
2017-12-05T08:26:04.549Z,78.67
2017-12-05T08:27:11.168Z,78.75
2017-12-05T08:28:16.145Z,78.74
2017-12-05T08:29:21.800Z,78.72
2017-12-05T08:30:27.290Z,78.66
2017-12-05T08:31:32.715Z,78.53
2017-12-05T08:32:37.885Z,78.25
2017-12-05T08:33:43.105Z,78.02
2017-12-05T08:34:48.290Z,77.94
2017-12-05T08:35:53.796Z,77.82
2017-12-05T08:36:58.776Z,77.56
2017-12-05T08:38:05.449Z,77.62
2017-12-05T08:39:11.753Z,77.75
2017-12-05T08:40:17.770Z,77.46
2017-12-05T08:41:23.285Z,77.31
2017-12-05T08:42:29.298Z,77.31
2017-12-05T08:43:35.588Z,77.34
2017-12-05T08:44:41.803Z,77.50
2017-12-05T08:45:47.237Z,77.57
2017-12-05T08:46:53.038Z,77.58
2017-12-05T08:47:58.108Z,77.56
2017-12-05T08:49:03.620Z,77.64
2017-12-05T08:50:09.112Z,77.61
2017-12-05T08:51:15.483Z,77.72
2017-12-05T08:52:20.582Z,77.58
2017-12-05T08:53:26.371Z,77.50
2017-12-05T08:54:31.573Z,77.46
2017-12-05T08:55:36.711Z,77.61
2017-12-05T08:56:42.263Z,77.59
2017-12-05T08:57:47.776Z,77.59
2017-12-05T08:58:52.906Z,77.73
2017-12-05T08:59:58.341Z,77.70
2017-12-05T09:01:03.422Z,77.68
2017-12-05T09:02:08.489Z,77.61
2017-12-05T09:03:14.201Z,77.59
2017-12-05T09:04:20.345Z,77.54
2017-12-05T09:05:26.865Z,77.36
2017-12-05T09:06:31.940Z,77.30
2017-12-05T09:07:38.167Z,77.29
2017-12-05T09:08:44.004Z,77.32
2017-12-05T09:09:49.543Z,77.23
2017-12-05T09:10:54.958Z,77.07
2017-12-05T09:12:00.204Z,77.03
2017-12-05T09:13:05.769Z,77.09
2017-12-05T09:14:11.242Z,77.12
2017-12-05T09:15:16.393Z,77.16
2017-12-05T09:16:21.780Z,77.12
2017-12-05T09:17:26.991Z,77.10
2017-12-05T09:18:32.485Z,77.02
2017-12-05T09:19:37.993Z,76.90
2017-12-05T09:20:43.939Z,76.93
2017-12-05T09:21:49.584Z,76.92
2017-12-05T09:22:55.362Z,76.92
2017-12-05T09:24:00.945Z,76.75
2017-12-05T09:25:07.213Z,76.58
2017-12-05T09:26:13.122Z,76.49
2017-12-05T09:27:19.272Z,76.24
2017-12-05T09:28:24.677Z,76.04
2017-12-05T09:29:29.773Z,76.12
2017-12-05T09:30:36.586Z,76.04
2017-12-05T09:31:43.603Z,75.83
2017-12-05T09:32:49.124Z,75.57
2017-12-05T09:33:55.256Z,75.47
2017-12-05T09:35:00.383Z,75.48
2017-12-05T09:36:05.474Z,75.54
2017-12-05T09:37:11.587Z,75.55
2017-12-05T09:38:17.412Z,75.64
2017-12-05T09:39:22.823Z,75.48
2017-12-05T09:40:28.043Z,75.32
2017-12-05T09:41:33.221Z,75.14
2017-12-05T09:42:38.621Z,75.06
2017-12-05T09:43:43.698Z,74.94
2017-12-05T09:44:48.794Z,74.71
2017-12-05T09:45:54.643Z,74.74
2017-12-05T09:47:01.233Z,74.54
2017-12-05T09:48:07.452Z,74.26
2017-12-05T09:49:13.736Z,74.27
2017-12-05T09:50:18.801Z,74.39
2017-12-05T09:51:23.893Z,74.37
2017-12-05T09:52:28.946Z,74.25
2017-12-05T09:53:33.980Z,74.20
2017-12-05T09:54:39.854Z,74.13
2017-12-05T09:55:46.326Z,74.36
2017-12-05T09:56:51.835Z,74.52
2017-12-05T09:57:56.888Z,74.56
2017-12-05T09:59:02.597Z,74.45
2017-12-05T10:00:08.815Z,74.36
2017-12-05T10:01:13.894Z,74.33
2017-12-05T10:02:19.975Z,74.23
2017-12-05T10:03:25.411Z,74.28
2017-12-05T10:04:30.818Z,74.17
2017-12-05T10:05:37.080Z,73.99
2017-12-05T10:06:42.496Z,73.86
2017-12-05T10:07:47.703Z,73.69
2017-12-05T10:08:52.752Z,73.61
2017-12-05T10:09:58.220Z,73.63
2017-12-05T10:11:03.422Z,73.53
2017-12-05T10:12:08.820Z,73.23
2017-12-05T10:13:15.039Z,73.06
2017-12-05T10:14:20.370Z,72.99
2017-12-05T10:15:26.218Z,72.89
2017-12-05T10:16:31.708Z,72.82
2017-12-05T10:17:38.009Z,72.85
2017-12-05T10:18:43.437Z,72.85
2017-12-05T10:19:48.947Z,72.89
2017-12-05T10:20:54.584Z,73.07
2017-12-05T10:21:59.753Z,72.90
2017-12-05T10:23:04.882Z,73.03
2017-12-05T10:24:10.440Z,72.92
2017-12-05T10:25:15.996Z,72.82
2017-12-05T10:26:22.311Z,72.55
2017-12-05T10:27:27.497Z,72.59
2017-12-05T10:28:32.587Z,72.60
2017-12-05T10:29:38.138Z,72.48
2017-12-05T10:30:43.953Z,72.43
2017-12-05T10:31:49.053Z,72.54
2017-12-05T10:32:54.294Z,72.49
2017-12-05T10:34:00.029Z,72.48
2017-12-05T10:35:06.041Z,72.46
2017-12-05T10:36:11.576Z,72.28
2017-12-05T10:37:16.669Z,72.43
2017-12-05T10:38:21.752Z,72.54
2017-12-05T10:39:27.671Z,72.60
2017-12-05T10:40:33.132Z,72.51
2017-12-05T10:41:39.016Z,72.56
2017-12-05T10:42:44.526Z,72.74
2017-12-05T10:43:49.992Z,72.90
2017-12-05T10:44:55.969Z,72.87
2017-12-05T10:46:01.090Z,73.00
2017-12-05T10:47:06.889Z,73.16
2017-12-05T10:48:12.756Z,73.23
2017-12-05T10:49:18.773Z,73.46
2017-12-05T10:50:24.025Z,73.56
2017-12-05T10:51:29.184Z,73.74
2017-12-05T10:52:35.215Z,73.85
2017-12-05T10:53:41.079Z,73.99
2017-12-05T10:54:46.164Z,74.26
2017-12-05T10:55:51.591Z,74.29
2017-12-05T10:56:56.778Z,74.41
2017-12-05T10:58:02.099Z,74.46
2017-12-05T10:59:07.635Z,74.36
2017-12-05T11:00:12.704Z,74.30
2017-12-05T11:01:17.789Z,74.19
2017-12-05T11:02:23.666Z,74.22
2017-12-05T11:03:29.645Z,74.45
2017-12-05T11:04:35.961Z,74.57
2017-12-05T11:05:41.333Z,74.70
2017-12-05T11:06:46.797Z,74.82
2017-12-05T11:07:52.339Z,74.86
2017-12-05T11:08:57.658Z,74.93
2017-12-05T11:10:04.407Z,74.85
2017-12-05T11:11:10.758Z,75.01
2017-12-05T11:12:16.967Z,74.93
2017-12-05T11:13:22.779Z,74.74
2017-12-05T11:14:29.145Z,74.54
2017-12-05T11:15:34.964Z,74.34
2017-12-05T11:16:41.446Z,74.32
2017-12-05T11:17:47.156Z,74.33
2017-12-05T11:18:53.657Z,74.30
2017-12-05T11:19:59.372Z,74.28
2017-12-05T11:21:04.922Z,74.22
2017-12-05T11:22:10.674Z,74.19
2017-12-05T11:23:15.887Z,74.10
2017-12-05T11:24:21.722Z,73.95
2017-12-05T11:25:27.242Z,73.98
2017-12-05T11:26:33.337Z,73.98
2017-12-05T11:27:39.052Z,73.89
2017-12-05T11:28:44.777Z,73.80
2017-12-05T11:29:51.289Z,73.69
2017-12-05T11:30:56.826Z,73.65
2017-12-05T11:32:03.867Z,73.59
2017-12-05T11:33:10.090Z,73.69
2017-12-05T11:34:15.894Z,73.65
2017-12-05T11:35:21.724Z,73.53
2017-12-05T11:36:27.197Z,73.48
2017-12-05T11:37:33.697Z,73.40
2017-12-05T11:38:39.329Z,73.34
2017-12-05T11:39:45.160Z,73.32
2017-12-05T11:40:51.363Z,73.19
2017-12-05T11:41:57.113Z,73.25
2017-12-05T11:43:03.289Z,73.25
2017-12-05T11:44:09.862Z,73.10
2017-12-05T11:45:15.640Z,73.11
2017-12-05T11:46:21.377Z,73.28
2017-12-05T11:47:26.601Z,73.44
2017-12-05T11:48:32.334Z,73.39
2017-12-05T11:49:37.973Z,73.38
2017-12-05T11:50:43.468Z,73.40
2017-12-05T11:51:49.988Z,73.50
2017-12-05T11:52:55.709Z,73.57
2017-12-05T11:54:01.097Z,73.69
2017-12-05T11:55:06.152Z,73.73
2017-12-05T11:56:11.874Z,73.91
2017-12-05T11:57:18.387Z,73.91
2017-12-05T11:58:24.100Z,73.85
2017-12-05T11:59:29.808Z,73.95
2017-12-05T12:00:34.924Z,74.11
2017-12-05T12:01:40.633Z,74.16
2017-12-05T12:02:46.572Z,74.00
2017-12-05T12:03:52.466Z,74.10
2017-12-05T12:04:58.971Z,74.14
2017-12-05T12:06:04.441Z,74.21
2017-12-05T12:07:09.504Z,74.00
2017-12-05T12:08:15.433Z,74.07
2017-12-05T12:09:21.975Z,74.23
2017-12-05T12:10:27.750Z,74.26
2017-12-05T12:11:34.227Z,74.33
2017-12-05T12:12:39.937Z,74.37
2017-12-05T12:13:46.448Z,74.34
2017-12-05T12:14:52.184Z,74.29
2017-12-05T12:15:57.901Z,74.20
2017-12-05T12:17:03.606Z,74.31
2017-12-05T12:18:10.183Z,74.51
2017-12-05T12:19:16.726Z,74.48
2017-12-05T12:20:23.216Z,74.46
2017-12-05T12:21:28.933Z,74.37
2017-12-05T12:22:35.420Z,74.34
2017-12-05T12:23:41.134Z,74.32
2017-12-05T12:24:47.646Z,74.35
2017-12-05T12:25:53.358Z,74.34
2017-12-05T12:26:59.085Z,74.38
2017-12-05T12:28:04.800Z,74.42
2017-12-05T12:29:12.029Z,74.75
2017-12-05T12:30:17.827Z,74.89
2017-12-05T12:31:25.127Z,75.00
2017-12-05T12:32:31.609Z,74.98
2017-12-05T12:33:37.336Z,74.90
2017-12-05T12:34:43.825Z,74.93
2017-12-05T12:35:49.569Z,75.03
2017-12-05T12:36:55.326Z,75.04
2017-12-05T12:38:01.058Z,75.07
2017-12-05T12:39:06.452Z,75.10
2017-12-05T12:40:11.536Z,75.22
2017-12-05T12:41:16.845Z,75.26
2017-12-05T12:42:22.301Z,75.25
2017-12-05T12:43:28.017Z,75.21
2017-12-05T12:44:33.758Z,75.28
2017-12-05T12:45:39.465Z,75.24
2017-12-05T12:46:45.205Z,75.33
2017-12-05T12:47:50.933Z,75.25
2017-12-05T12:48:57.417Z,75.26
2017-12-05T12:50:03.128Z,75.34
2017-12-05T12:51:09.639Z,75.35
2017-12-05T12:52:15.532Z,75.47
2017-12-05T12:53:22.017Z,75.34
2017-12-05T12:54:27.738Z,75.18
2017-12-05T12:55:33.286Z,74.91
2017-12-05T12:56:39.006Z,74.87
2017-12-05T12:57:45.289Z,74.87
2017-12-05T12:58:51.041Z,74.88
2017-12-05T12:59:56.764Z,74.98
2017-12-05T13:01:02.473Z,74.86
2017-12-05T13:02:08.953Z,74.90
2017-12-05T13:03:14.695Z,75.09
2017-12-05T13:04:20.220Z,75.15
2017-12-05T13:05:26.700Z,75.18
2017-12-05T13:06:32.436Z,75.26
2017-12-05T13:07:38.587Z,75.36
2017-12-05T13:08:44.341Z,75.58
2017-12-05T13:09:50.061Z,75.46
2017-12-05T13:10:55.786Z,75.31
2017-12-05T13:12:02.282Z,75.53
2017-12-05T13:13:07.994Z,75.62
2017-12-05T13:14:14.568Z,75.61
2017-12-05T13:15:20.288Z,75.62
2017-12-05T13:16:26.767Z,75.62
2017-12-05T13:17:32.482Z,75.52
2017-12-05T13:18:38.966Z,75.57
2017-12-05T13:19:44.892Z,75.67
2017-12-05T13:20:51.437Z,75.70
2017-12-05T13:21:57.399Z,75.70
2017-12-05T13:23:03.685Z,75.65
2017-12-05T13:24:10.371Z,75.82
2017-12-05T13:25:16.119Z,75.79
2017-12-05T13:26:22.024Z,75.80
2017-12-05T13:27:27.775Z,75.81
2017-12-05T13:28:33.505Z,75.89
2017-12-05T13:29:40.192Z,76.14
2017-12-05T13:30:46.011Z,76.17
2017-12-05T13:31:52.088Z,75.94
2017-12-05T13:32:57.825Z,75.93
2017-12-05T13:34:03.642Z,75.90
2017-12-05T13:35:09.401Z,75.94
2017-12-05T13:36:14.974Z,75.90
2017-12-05T13:37:20.987Z,76.03
2017-12-05T13:38:26.916Z,76.24
2017-12-05T13:39:32.639Z,76.30
2017-12-05T13:40:39.117Z,76.31
2017-12-05T13:41:45.011Z,76.34
2017-12-05T13:42:50.887Z,76.50
2017-12-05T13:43:56.854Z,76.56
2017-12-05T13:45:02.605Z,76.56
2017-12-05T13:46:08.363Z,76.55
2017-12-05T13:47:14.096Z,76.41
2017-12-05T13:48:19.972Z,76.42
2017-12-05T13:49:26.482Z,76.53
2017-12-05T13:50:32.191Z,76.72
2017-12-05T13:51:38.509Z,76.65
2017-12-05T13:52:44.429Z,76.71
2017-12-05T13:53:50.135Z,76.76
2017-12-05T13:54:56.614Z,76.89
2017-12-05T13:56:02.690Z,76.89
2017-12-05T13:57:08.312Z,76.98
2017-12-05T13:58:14.511Z,76.97
2017-12-05T13:59:20.912Z,77.00
2017-12-05T14:00:26.676Z,77.11
2017-12-05T14:01:32.450Z,77.13
2017-12-05T14:02:39.522Z,77.24
2017-12-05T14:03:45.978Z,77.22
2017-12-05T14:04:51.341Z,77.14
2017-12-05T14:05:57.905Z,77.09
2017-12-05T14:07:03.407Z,77.09